createdAt,value
2024-03-12T00:02:11.593Z,29.80
2024-03-12T00:04:39.279Z,31.60
2024-03-12T00:07:08.179Z,28.80
2024-03-12T00:09:36.033Z,26.90
2024-03-12T00:12:03.679Z,26.40
2024-03-12T00:14:34.960Z,28.90
2024-03-12T00:17:02.912Z,31.30
2024-03-12T00:19:30.550Z,31.70
2024-03-12T00:21:58.735Z,32.00
2024-03-12T00:24:26.422Z,27.70
2024-03-12T00:26:54.686Z,30.20
2024-03-12T00:29:23.183Z,32.70
2024-03-12T00:31:52.637Z,31.50
2024-03-12T00:34:21.864Z,34.80
2024-03-12T00:36:49.508Z,28.70
2024-03-12T00:39:17.286Z,27.10
2024-03-12T00:41:44.877Z,26.60
2024-03-12T00:44:12.521Z,27.40
2024-03-12T00:46:41.481Z,27.10
2024-03-12T00:49:10.564Z,27.30
2024-03-12T00:51:39.706Z,25.90
2024-03-12T00:54:07.335Z,27.00
2024-03-12T00:56:34.960Z,28.00
2024-03-12T00:59:03.053Z,26.20
2024-03-12T01:01:31.681Z,27.70
2024-03-12T01:03:59.560Z,31.50
2024-03-12T01:06:27.571Z,30.50
2024-03-12T01:08:56.391Z,28.00
2024-03-12T01:11:24.127Z,25.80
2024-03-12T01:13:52.230Z,27.40
2024-03-12T01:16:19.821Z,30.20
2024-03-12T01:18:47.686Z,29.20
2024-03-12T01:21:15.405Z,27.80
2024-03-12T01:23:44.382Z,28.50
2024-03-12T01:26:12.029Z,24.90
2024-03-12T01:28:39.652Z,26.30
2024-03-12T01:31:07.326Z,25.60
2024-03-12T01:33:36.236Z,24.90
2024-03-12T01:36:07.078Z,26.40
2024-03-12T01:38:35.788Z,25.20
2024-03-12T01:41:06.580Z,26.40
2024-03-12T01:43:35.429Z,30.30
2024-03-12T01:46:04.157Z,26.20
2024-03-12T01:48:32.955Z,25.00
2024-03-12T01:51:00.647Z,23.50
2024-03-12T01:53:28.660Z,23.30
2024-03-12T01:55:56.311Z,23.50
2024-03-12T01:58:23.938Z,26.30
2024-03-12T02:00:51.634Z,25.10
2024-03-12T02:03:20.572Z,25.40
2024-03-12T02:05:49.027Z,23.70
2024-03-12T02:08:18.451Z,23.70
2024-03-12T02:10:47.377Z,22.50
2024-03-12T02:13:15.294Z,24.70
2024-03-12T02:15:43.259Z,29.20
2024-03-12T02:18:11.326Z,26.00
2024-03-12T02:20:39.678Z,25.30
2024-03-12T02:23:07.593Z,23.60
2024-03-12T02:25:35.405Z,21.50
2024-03-12T02:28:04.020Z,24.60
2024-03-12T02:30:32.334Z,22.30
2024-03-12T02:33:01.133Z,23.60
2024-03-12T02:35:28.887Z,22.00
2024-03-12T02:37:56.894Z,24.20
2024-03-12T02:40:24.961Z,25.30
2024-03-12T02:42:52.735Z,23.90
2024-03-12T02:45:22.355Z,24.70
2024-03-12T02:47:50.568Z,24.30
2024-03-12T02:50:19.650Z,27.90
2024-03-12T02:52:47.517Z,23.50
2024-03-12T02:55:15.480Z,26.00
2024-03-12T02:57:43.514Z,25.60
2024-03-12T03:00:15.417Z,23.90
2024-03-12T03:02:43.998Z,21.00
2024-03-12T03:05:12.475Z,21.80
2024-03-12T03:07:41.899Z,20.90
2024-03-12T03:10:11.893Z,22.50
2024-03-12T03:12:41.092Z,27.50
2024-03-12T03:15:13.687Z,21.00
2024-03-12T03:17:44.118Z,24.80
2024-03-12T03:20:18.446Z,23.40
2024-03-12T03:22:46.707Z,23.30
2024-03-12T03:25:15.296Z,25.10
2024-03-12T03:27:43.752Z,24.30
2024-03-12T03:30:14.491Z,23.30
2024-03-12T03:32:42.505Z,23.50
2024-03-12T03:35:10.422Z,25.50
2024-03-12T03:37:38.396Z,22.30
2024-03-12T03:40:06.229Z,21.80
2024-03-12T03:42:34.174Z,25.20
2024-03-12T03:45:02.082Z,26.20
2024-03-12T03:47:35.900Z,23.80
2024-03-12T03:50:04.425Z,26.10
2024-03-12T03:52:32.206Z,21.50
2024-03-12T03:55:00.041Z,27.70
2024-03-12T03:57:27.769Z,28.60
2024-03-12T03:59:58.130Z,23.70
2024-03-12T04:02:26.256Z,24.00
2024-03-12T04:04:53.910Z,24.30
2024-03-12T04:07:21.589Z,26.20
2024-03-12T04:09:49.663Z,28.90
2024-03-12T04:12:17.323Z,25.70
2024-03-12T04:14:44.940Z,25.90
2024-03-12T04:17:12.581Z,23.70
2024-03-12T04:19:41.696Z,24.40
2024-03-12T04:22:10.142Z,26.70
2024-03-12T04:24:39.373Z,31.60
2024-03-12T04:27:07.170Z,27.90
2024-03-12T04:29:34.811Z,23.90
2024-03-12T04:32:03.696Z,24.00
2024-03-12T04:34:31.640Z,24.20
2024-03-12T04:36:59.870Z,24.60
2024-03-12T04:39:33.686Z,24.80
2024-03-12T04:42:03.389Z,26.10
2024-03-12T04:44:31.067Z,25.60
2024-03-12T04:46:58.733Z,28.70
2024-03-12T04:49:26.446Z,24.00
2024-03-12T04:51:54.091Z,24.80
2024-03-12T04:54:21.836Z,23.50
2024-03-12T04:56:51.981Z,25.70
2024-03-12T04:59:19.860Z,25.10
2024-03-12T05:01:49.767Z,32.00
2024-03-12T05:04:22.586Z,31.90
2024-03-12T05:06:51.884Z,33.60
2024-03-12T05:09:19.905Z,31.80
2024-03-12T05:11:49.011Z,27.70
2024-03-12T05:14:16.699Z,26.90
2024-03-12T05:16:44.321Z,25.20
2024-03-12T05:19:12.666Z,27.80
2024-03-12T05:21:40.909Z,30.90
2024-03-12T05:24:08.967Z,29.10
2024-03-12T05:26:45.394Z,31.40
2024-03-12T05:29:13.484Z,26.00
2024-03-12T05:31:41.868Z,28.40
2024-03-12T05:34:17.392Z,27.00
2024-03-12T05:36:53.351Z,31.20
2024-03-12T05:39:49.306Z,29.10
2024-03-12T05:42:35.880Z,22.70
2024-03-12T05:45:22.268Z,23.80
2024-03-12T05:48:09.081Z,34.20
2024-03-12T05:50:37.118Z,29.10
2024-03-12T05:53:04.781Z,30.00
2024-03-12T05:55:32.472Z,30.50
2024-03-12T05:58:00.120Z,30.40
2024-03-12T06:00:28.181Z,29.60
2024-03-12T06:02:55.867Z,30.70
2024-03-12T06:05:23.476Z,25.60
2024-03-12T06:07:53.733Z,26.90
2024-03-12T06:10:23.081Z,26.40
2024-03-12T06:12:51.144Z,22.90
2024-03-12T06:15:18.850Z,21.60
2024-03-12T06:17:47.124Z,32.50
2024-03-12T06:20:14.888Z,25.10
2024-03-12T06:22:43.541Z,32.70
2024-03-12T06:25:11.790Z,23.40
2024-03-12T06:27:40.185Z,35.30
2024-03-12T06:30:08.046Z,23.90
2024-03-12T06:32:35.976Z,25.00
2024-03-12T06:35:03.630Z,22.80
2024-03-12T06:37:31.327Z,30.40
2024-03-12T06:40:02.013Z,29.60
2024-03-12T06:42:32.999Z,32.80
2024-03-12T06:45:02.670Z,27.80
2024-03-12T06:47:33.623Z,32.50
2024-03-12T06:50:01.365Z,30.50
2024-03-12T06:52:29.234Z,36.40
2024-03-12T06:54:57.111Z,34.50
2024-03-12T06:57:26.300Z,24.90
2024-03-12T06:59:54.888Z,26.00
2024-03-12T07:02:23.562Z,28.00
2024-03-12T07:04:52.456Z,29.30
2024-03-12T07:07:21.204Z,29.30
2024-03-12T07:09:50.800Z,26.70
2024-03-12T07:12:20.028Z,24.60
2024-03-12T07:14:56.455Z,26.40
2024-03-12T07:17:24.567Z,27.40
2024-03-12T07:19:53.402Z,23.60
2024-03-12T07:22:21.773Z,28.30
2024-03-12T07:24:49.993Z,24.20
2024-03-12T07:27:17.614Z,24.20
2024-03-12T07:29:45.346Z,23.70
2024-03-12T07:32:14.662Z,17.20
2024-03-12T07:34:43.597Z,23.10
2024-03-12T07:37:11.523Z,20.50
2024-03-12T07:39:39.884Z,22.50
2024-03-12T07:42:14.809Z,23.80
2024-03-12T07:44:43.264Z,21.00
2024-03-12T07:47:11.677Z,22.00
2024-03-12T07:49:39.460Z,21.90
2024-03-12T07:52:07.453Z,37.10
2024-03-12T07:54:36.016Z,23.50
2024-03-12T07:57:03.658Z,21.80
2024-03-12T07:59:31.744Z,25.20
2024-03-12T08:01:59.676Z,22.50
2024-03-12T08:04:27.614Z,25.00
2024-03-12T08:06:56.211Z,24.70
2024-03-12T08:09:24.543Z,30.90
2024-03-12T08:11:52.516Z,35.20
2024-03-12T08:14:20.886Z,33.00
2024-03-12T08:16:50.469Z,38.90
2024-03-12T08:19:18.745Z,28.90
2024-03-12T08:21:46.619Z,30.40
2024-03-12T08:24:14.326Z,33.70
2024-03-12T08:26:44.712Z,29.00
2024-03-12T08:29:13.083Z,29.90
2024-03-12T08:31:47.486Z,28.50
2024-03-12T08:34:19.416Z,35.90
2024-03-12T08:36:48.834Z,30.90
2024-03-12T08:39:17.251Z,23.00
2024-03-12T08:41:45.452Z,24.30
2024-03-12T08:44:15.456Z,23.30
2024-03-12T08:46:43.159Z,24.10
2024-03-12T08:49:12.680Z,24.80
2024-03-12T08:51:41.173Z,23.30
2024-03-12T08:54:10.443Z,24.50
2024-03-12T08:56:38.264Z,22.60
2024-03-12T08:59:06.597Z,39.70
2024-03-12T09:01:34.920Z,27.70
2024-03-12T09:04:03.936Z,30.80
2024-03-12T09:06:33.906Z,29.10
2024-03-12T09:09:01.904Z,36.50
2024-03-12T09:11:29.650Z,27.00
2024-03-12T09:13:57.341Z,25.70
2024-03-12T09:16:25.002Z,29.40
2024-03-12T09:18:55.005Z,26.80
2024-03-12T09:21:22.766Z,27.60
2024-03-12T09:23:57.009Z,25.40
2024-03-12T09:26:30.041Z,26.10
2024-03-12T09:28:59.295Z,23.50
2024-03-12T09:31:27.046Z,26.00
2024-03-12T09:33:55.606Z,24.80
2024-03-12T09:36:23.453Z,26.30
2024-03-12T09:38:52.278Z,25.50
2024-03-12T09:41:20.176Z,28.40
2024-03-12T09:43:47.807Z,29.20
2024-03-12T09:46:16.683Z,29.30
2024-03-12T09:48:46.416Z,27.60
2024-03-12T09:51:14.323Z,40.80
2024-03-12T09:53:43.610Z,27.10
2024-03-12T09:56:11.925Z,23.80
2024-03-12T09:58:39.929Z,29.50
2024-03-12T10:01:08.100Z,26.20
2024-03-12T10:03:38.968Z,29.20
2024-03-12T10:06:07.992Z,28.00
2024-03-12T10:08:36.180Z,26.90
2024-03-12T10:11:10.140Z,27.30
2024-03-12T10:13:39.177Z,26.00
2024-03-12T10:16:09.017Z,26.50
2024-03-12T10:18:38.852Z,25.50
2024-03-12T10:21:08.494Z,25.80
2024-03-12T10:23:38.002Z,26.40
2024-03-12T10:26:08.871Z,27.10
2024-03-12T10:28:38.973Z,21.80
2024-03-12T10:31:10.708Z,25.80
2024-03-12T10:33:39.409Z,23.00
2024-03-12T10:36:12.180Z,24.10
2024-03-12T10:38:41.361Z,22.10
2024-03-12T10:41:09.247Z,24.60
2024-03-12T10:43:36.887Z,26.90
2024-03-12T10:46:05.330Z,24.50
2024-03-12T10:48:33.015Z,39.50
2024-03-12T10:51:00.697Z,26.20
2024-03-12T10:53:31.172Z,25.20
2024-03-12T10:56:00.059Z,29.20
2024-03-12T10:58:27.845Z,39.20
2024-03-12T11:00:56.411Z,36.20
2024-03-12T11:03:25.379Z,28.40
2024-03-12T11:05:53.462Z,23.60
2024-03-12T11:08:21.086Z,23.80
2024-03-12T11:10:49.040Z,24.10
2024-03-12T11:13:21.844Z,23.30
2024-03-12T11:15:49.716Z,32.70
2024-03-12T11:18:17.433Z,27.50
2024-03-12T11:20:45.089Z,24.90
2024-03-12T11:23:15.903Z,21.90
2024-03-12T11:25:50.505Z,27.80
2024-03-12T11:28:22.322Z,26.60
2024-03-12T11:30:50.405Z,40.10
2024-03-12T11:33:19.263Z,36.60
2024-03-12T11:35:48.036Z,27.40
2024-03-12T11:38:17.095Z,25.30
2024-03-12T11:40:45.077Z,26.60
2024-03-12T11:43:13.014Z,22.30
2024-03-12T11:45:41.211Z,22.60
2024-03-12T11:48:09.239Z,20.40
2024-03-12T11:50:38.137Z,21.20
2024-03-12T11:53:07.996Z,27.50
2024-03-12T11:55:35.611Z,19.40
2024-03-12T11:58:03.299Z,23.80
2024-03-12T12:00:33.230Z,21.40
2024-03-12T12:03:00.897Z,35.50
2024-03-12T12:05:28.919Z,18.90
2024-03-12T12:07:57.569Z,23.80
2024-03-12T12:10:25.268Z,19.80
2024-03-12T12:12:52.953Z,20.30
2024-03-12T12:15:20.601Z,17.20
2024-03-12T12:20:37.014Z,19.60
2024-03-12T12:23:04.648Z,19.70
2024-03-12T12:25:32.403Z,16.60
2024-03-12T12:28:00.082Z,19.40
2024-03-12T12:30:28.256Z,16.50
2024-03-12T12:32:56.013Z,20.60
2024-03-12T12:35:24.349Z,17.00
2024-03-12T12:37:52.224Z,25.60
2024-03-12T12:40:21.756Z,25.50
2024-03-12T12:42:49.918Z,27.00
2024-03-12T12:45:17.637Z,24.30
2024-03-12T12:47:45.300Z,20.00
2024-03-12T12:50:12.951Z,23.40
2024-03-12T12:52:41.843Z,23.30
2024-03-12T12:55:11.230Z,16.80
2024-03-12T12:57:43.796Z,18.40
2024-03-12T13:00:16.674Z,19.60
2024-03-12T13:02:47.608Z,21.50
2024-03-12T13:05:16.190Z,19.40
2024-03-12T13:07:45.275Z,17.70
2024-03-12T13:10:19.821Z,19.10
2024-03-12T13:12:48.343Z,16.90
2024-03-12T13:15:16.021Z,19.60
2024-03-12T13:17:44.180Z,18.20
2024-03-12T13:20:14.681Z,18.00
2024-03-12T13:22:42.421Z,15.40
2024-03-12T13:25:11.418Z,19.20
2024-03-12T13:27:39.907Z,21.00
2024-03-12T13:30:09.384Z,19.60
2024-03-12T13:32:37.179Z,22.10
2024-03-12T13:35:04.867Z,26.30
2024-03-12T13:37:35.046Z,20.50
2024-03-12T13:40:06.498Z,22.50
2024-03-12T13:42:36.400Z,24.70
2024-03-12T13:45:05.729Z,19.70
2024-03-12T13:47:35.072Z,20.60
2024-03-12T13:50:02.714Z,20.30
2024-03-12T13:52:31.783Z,27.00
2024-03-12T13:55:01.030Z,23.60
2024-03-12T13:57:28.886Z,26.60
2024-03-12T13:59:56.515Z,24.90
2024-03-12T14:02:24.431Z,25.60
2024-03-12T14:04:52.930Z,19.00
2024-03-12T14:07:20.717Z,22.90
2024-03-12T14:09:48.541Z,23.30
2024-03-12T14:12:16.169Z,24.30
2024-03-12T14:14:44.300Z,25.20
2024-03-12T14:17:12.378Z,25.70
2024-03-12T14:19:40.058Z,21.80
2024-03-12T14:22:08.683Z,25.90
2024-03-12T14:24:37.469Z,25.60
2024-03-12T14:27:06.691Z,26.60
2024-03-12T14:29:34.384Z,24.10
2024-03-12T14:32:02.054Z,24.80
2024-03-12T14:34:30.027Z,23.00
2024-03-12T14:36:57.696Z,26.80
2024-03-12T14:39:25.441Z,37.90
2024-03-12T14:41:53.178Z,28.60
2024-03-12T14:44:21.265Z,29.40
2024-03-12T14:46:48.996Z,22.10
2024-03-12T14:49:16.744Z,25.20
2024-03-12T14:51:44.636Z,32.60
2024-03-12T14:54:12.363Z,38.90
2024-03-12T14:56:39.976Z,30.90
2024-03-12T14:59:07.659Z,31.90
2024-03-12T15:01:35.458Z,32.40
2024-03-12T15:04:03.370Z,22.70
2024-03-12T15:06:31.068Z,20.60
2024-03-12T15:08:59.445Z,22.50
2024-03-12T15:11:27.614Z,19.10
2024-03-12T15:13:56.041Z,27.80
2024-03-12T15:16:23.786Z,25.70
2024-03-12T15:18:51.707Z,20.20
2024-03-12T15:21:19.375Z,19.70
2024-03-12T15:23:47.675Z,22.70
2024-03-12T15:26:15.571Z,20.80
2024-03-12T15:28:43.209Z,21.00
2024-03-12T15:31:10.862Z,23.80
2024-03-12T15:33:38.598Z,26.80
2024-03-12T15:36:06.406Z,27.90
2024-03-12T15:38:35.173Z,26.30
2024-03-12T15:41:02.951Z,32.70
2024-03-12T15:43:30.697Z,25.30
2024-03-12T15:45:58.422Z,30.60
2024-03-12T15:48:26.185Z,26.80
2024-03-12T15:50:55.515Z,21.90
2024-03-12T15:53:24.048Z,27.10
2024-03-12T15:55:51.962Z,27.00
2024-03-12T15:58:19.631Z,23.60
2024-03-12T16:00:48.056Z,24.10
2024-03-12T16:03:16.386Z,22.70
2024-03-12T16:05:44.221Z,26.70
2024-03-12T16:08:12.116Z,22.50
2024-03-12T16:10:39.831Z,26.00
2024-03-12T16:13:08.585Z,25.30
2024-03-12T16:15:37.058Z,25.30
2024-03-12T16:18:04.777Z,26.00
2024-03-12T16:20:32.498Z,25.10
2024-03-12T16:23:00.112Z,35.70
2024-03-12T16:25:28.225Z,32.10
2024-03-12T16:27:55.980Z,30.80
2024-03-12T16:30:23.671Z,30.80
2024-03-12T16:32:51.310Z,29.30
2024-03-12T16:35:18.959Z,33.80
2024-03-12T16:37:46.592Z,31.10
2024-03-12T16:40:14.453Z,31.30
2024-03-12T16:42:43.715Z,31.40
2024-03-12T16:45:11.933Z,30.30
2024-03-12T16:47:39.644Z,32.30
2024-03-12T16:50:09.736Z,30.00
2024-03-12T16:52:37.767Z,36.40
2024-03-12T16:55:05.466Z,30.50
2024-03-12T16:57:35.167Z,33.40
2024-03-12T17:00:03.351Z,33.80
2024-03-12T17:02:43.447Z,37.10
2024-03-12T17:05:12.947Z,29.20
2024-03-12T17:07:41.104Z,36.90
2024-03-12T17:10:08.834Z,34.70
2024-03-12T17:12:36.623Z,39.00
2024-03-12T17:15:04.238Z,37.30
2024-03-12T17:17:31.941Z,34.20
2024-03-12T17:19:59.640Z,34.40
2024-03-12T17:22:27.373Z,42.50
2024-03-12T17:24:55.140Z,44.00
2024-03-12T17:27:22.805Z,39.10
2024-03-12T17:29:50.425Z,45.30
2024-03-12T17:32:18.043Z,43.50
2024-03-12T17:34:45.660Z,44.40
2024-03-12T17:37:15.293Z,51.80
2024-03-12T17:39:43.672Z,42.10
2024-03-12T17:42:12.993Z,45.70
2024-03-12T17:44:40.653Z,43.90
2024-03-12T17:47:09.296Z,49.90
2024-03-12T17:49:39.964Z,47.50
2024-03-12T17:52:09.647Z,53.70
2024-03-12T17:54:40.833Z,46.00
2024-03-12T17:57:08.688Z,52.00
2024-03-12T17:59:39.923Z,51.10
2024-03-12T18:02:09.687Z,47.20
2024-03-12T18:04:37.369Z,47.10
2024-03-12T18:07:05.820Z,53.10
2024-03-12T18:09:35.587Z,49.80
2024-03-12T18:12:03.387Z,50.10
2024-03-12T18:14:33.039Z,50.20
2024-03-12T18:17:00.688Z,52.50
2024-03-12T18:19:28.391Z,53.20
2024-03-12T18:21:56.459Z,53.10
2024-03-12T18:24:24.068Z,49.90
2024-03-12T18:26:51.781Z,51.20
2024-03-12T18:29:19.471Z,48.50
2024-03-12T18:31:47.124Z,52.00
2024-03-12T18:34:18.607Z,47.50
2024-03-12T18:39:16.519Z,54.60
2024-03-12T18:41:44.779Z,47.80
2024-03-12T18:44:12.398Z,54.20
2024-03-12T18:46:40.022Z,51.30
2024-03-12T18:49:07.739Z,47.90
2024-03-12T18:51:36.256Z,51.70
2024-03-12T18:54:04.045Z,46.80
2024-03-12T18:56:31.672Z,47.50
2024-03-12T18:58:59.301Z,49.90
2024-03-12T19:01:29.145Z,50.00
2024-03-12T19:03:58.097Z,50.70
2024-03-12T19:06:27.426Z,53.10
2024-03-12T19:08:55.629Z,63.50
2024-03-12T19:11:23.316Z,61.10
2024-03-12T19:13:52.636Z,61.00
2024-03-12T19:16:20.465Z,56.50
2024-03-12T19:18:51.336Z,56.60
2024-03-12T19:21:20.929Z,55.60
2024-03-12T19:23:50.175Z,55.40
2024-03-12T19:26:19.365Z,59.40
2024-03-12T19:28:47.342Z,55.00
2024-03-12T19:31:15.701Z,63.40
2024-03-12T19:33:45.221Z,60.50
2024-03-12T19:36:13.019Z,56.50
2024-03-12T19:38:40.755Z,52.10
2024-03-12T19:41:09.245Z,58.30
2024-03-12T19:43:37.115Z,56.00
2024-03-12T19:46:06.329Z,57.90
2024-03-12T19:48:33.985Z,65.10
2024-03-12T19:51:01.606Z,53.50
2024-03-12T19:53:29.246Z,56.50
2024-03-12T19:55:57.368Z,53.10
2024-03-12T19:58:26.471Z,57.10
2024-03-12T20:00:54.566Z,54.00
2024-03-12T20:03:24.173Z,56.50
2024-03-12T20:05:52.027Z,52.60
2024-03-12T20:08:19.976Z,51.80
2024-03-12T20:10:48.420Z,52.10
2024-03-12T20:13:17.366Z,58.70
2024-03-12T20:15:49.112Z,49.90
2024-03-12T20:18:16.835Z,50.30
2024-03-12T20:20:44.900Z,49.90
2024-03-12T20:23:12.752Z,48.60
2024-03-12T20:25:41.509Z,50.80
2024-03-12T20:28:11.326Z,52.90
2024-03-12T20:30:40.372Z,56.40
2024-03-12T20:33:10.178Z,50.80
2024-03-12T20:35:44.310Z,49.60
2024-03-12T20:38:12.235Z,54.70
2024-03-12T20:40:41.084Z,45.90
2024-03-12T20:43:09.543Z,50.20
2024-03-12T20:45:40.166Z,54.90
2024-03-12T20:48:11.748Z,48.50
2024-03-12T20:50:41.238Z,55.70
2024-03-12T20:53:09.100Z,57.60
2024-03-12T20:55:36.982Z,52.00
2024-03-12T20:58:04.657Z,47.90
2024-03-12T21:00:34.449Z,54.10
2024-03-12T21:03:02.681Z,53.70
2024-03-12T21:05:32.028Z,47.10
2024-03-12T21:07:59.932Z,46.90
2024-03-12T21:10:28.422Z,42.70
2024-03-12T21:12:57.926Z,53.00
2024-03-12T21:15:26.150Z,49.90
2024-03-12T21:17:54.794Z,46.10
2024-03-12T21:20:25.872Z,44.10
2024-03-12T21:22:53.734Z,51.10
2024-03-12T21:25:21.483Z,44.00
2024-03-12T21:27:49.580Z,49.10
2024-03-12T21:30:20.237Z,51.80
2024-03-12T21:32:49.009Z,54.20
2024-03-12T21:35:17.039Z,58.10
2024-03-12T21:37:46.119Z,57.80
2024-03-12T21:40:13.961Z,72.40
2024-03-12T21:42:43.950Z,80.80
2024-03-12T21:45:13.011Z,82.30
2024-03-12T21:47:46.818Z,70.10
2024-03-12T21:50:16.514Z,60.30
2024-03-12T21:52:44.591Z,55.60
2024-03-12T21:55:12.834Z,56.00
2024-03-12T21:57:44.605Z,63.00
2024-03-12T22:00:20.426Z,50.50
2024-03-12T22:02:49.689Z,49.30
2024-03-12T22:05:21.116Z,44.60
2024-03-12T22:07:50.988Z,46.50
2024-03-12T22:10:19.204Z,40.60
2024-03-12T22:12:47.170Z,46.60
2024-03-12T22:15:16.526Z,43.90
2024-03-12T22:17:45.131Z,44.40
2024-03-12T22:20:16.523Z,44.20
2024-03-12T22:22:45.591Z,39.00
2024-03-12T22:25:16.402Z,38.30
2024-03-12T22:27:44.274Z,40.20
2024-03-12T22:30:12.162Z,35.90
2024-03-12T22:32:40.007Z,36.80
2024-03-12T22:35:08.190Z,39.30
2024-03-12T22:37:37.370Z,36.50
2024-03-12T22:40:05.055Z,38.60
2024-03-12T22:42:35.464Z,40.40
2024-03-12T22:45:03.539Z,38.10
2024-03-12T22:47:31.724Z,41.90
2024-03-12T22:50:00.421Z,37.70
2024-03-12T22:52:29.279Z,40.10
2024-03-12T22:54:56.958Z,36.50
2024-03-12T22:57:24.730Z,33.30
2024-03-12T22:59:53.786Z,41.30
2024-03-12T23:02:21.448Z,37.10
2024-03-12T23:04:49.077Z,40.10
2024-03-12T23:07:17.780Z,37.90
2024-03-12T23:09:45.472Z,38.10
2024-03-12T23:12:13.115Z,40.30
2024-03-12T23:14:41.445Z,40.60
2024-03-12T23:17:09.115Z,42.90
2024-03-12T23:19:41.600Z,45.90
2024-03-12T23:22:10.665Z,41.40
2024-03-12T23:24:39.413Z,40.40
2024-03-12T23:27:07.217Z,45.60
2024-03-12T23:29:34.900Z,44.70
2024-03-12T23:32:02.576Z,47.60
2024-03-12T23:34:30.275Z,41.30
2024-03-12T23:37:00.027Z,44.60
2024-03-12T23:39:27.680Z,43.50
2024-03-12T23:41:55.549Z,37.70
2024-03-12T23:44:24.841Z,42.10
2024-03-12T23:46:52.473Z,45.30
2024-03-12T23:49:20.190Z,42.90
2024-03-12T23:51:48.134Z,40.10
2024-03-12T23:54:15.751Z,38.00
2024-03-12T23:56:43.377Z,39.00
2024-03-12T23:59:11.008Z,45.90
